sensor_id;sensor_type;location;lat;lon;timestamp;P1;durP1;ratioP1;P2;durP2;ratioP2
75820;SDS011;64454;51.984;9.838;2023-07-13T00:02:03;3.15;;;2.20;;
75820;SDS011;64454;51.984;9.838;2023-07-13T00:04:30;4.30;;;2.78;;
75820;SDS011;64454;51.984;9.838;2023-07-13T00:06:58;5.40;;;2.50;;
75820;SDS011;64454;51.984;9.838;2023-07-13T00:09:26;4.20;;;2.88;;
75820;SDS011;64454;51.984;9.838;2023-07-13T00:11:53;3.00;;;2.70;;
75820;SDS011;64454;51.984;9.838;2023-07-13T00:14:22;4.30;;;2.60;;
75820;SDS011;64454;51.984;9.838;2023-07-13T00:16:52;3.70;;;2.80;;
75820;SDS011;64454;51.984;9.838;2023-07-13T00:19:20;4.07;;;2.75;;
75820;SDS011;64454;51.984;9.838;2023-07-13T00:21:47;2.50;;;2.30;;
75820;SDS011;64454;51.984;9.838;2023-07-13T00:24:17;3.67;;;2.78;;
75820;SDS011;64454;51.984;9.838;2023-07-13T00:26:48;5.53;;;2.70;;
75820;SDS011;64454;51.984;9.838;2023-07-13T00:29:17;3.92;;;2.80;;
75820;SDS011;64454;51.984;9.838;2023-07-13T00:31:46;4.30;;;2.72;;
75820;SDS011;64454;51.984;9.838;2023-07-13T00:34:13;4.45;;;2.60;;
75820;SDS011;64454;51.984;9.838;2023-07-13T00:36:42;4.15;;;2.60;;
75820;SDS011;64454;51.984;9.838;2023-07-13T00:39:09;3.10;;;2.80;;
75820;SDS011;64454;51.984;9.838;2023-07-13T00:41:38;3.83;;;2.60;;
75820;SDS011;64454;51.984;9.838;2023-07-13T00:44:04;4.03;;;2.65;;
75820;SDS011;64454;51.984;9.838;2023-07-13T00:46:40;4.13;;;2.60;;
75820;SDS011;64454;51.984;9.838;2023-07-13T00:49:14;3.40;;;2.67;;
75820;SDS011;64454;51.984;9.838;2023-07-13T00:51:48;4.38;;;2.92;;
75820;SDS011;64454;51.984;9.838;2023-07-13T00:54:21;2.70;;;2.47;;
75820;SDS011;64454;51.984;9.838;2023-07-13T00:56:57;6.05;;;2.80;;
75820;SDS011;64454;51.984;9.838;2023-07-13T00:59:28;3.80;;;2.70;;
75820;SDS011;64454;51.984;9.838;2023-07-13T01:01:55;3.70;;;2.40;;
75820;SDS011;64454;51.984;9.838;2023-07-13T01:04:23;4.90;;;3.10;;
75820;SDS011;64454;51.984;9.838;2023-07-13T01:06:50;2.55;;;2.30;;
75820;SDS011;64454;51.984;9.838;2023-07-13T01:09:19;3.90;;;3.10;;
75820;SDS011;64454;51.984;9.838;2023-07-13T01:11:47;2.50;;;2.30;;
75820;SDS011;64454;51.984;9.838;2023-07-13T01:14:17;4.00;;;2.60;;
75820;SDS011;64454;51.984;9.838;2023-07-13T01:16:46;7.00;;;2.90;;
75820;SDS011;64454;51.984;9.838;2023-07-13T01:19:18;3.63;;;3.10;;
75820;SDS011;64454;51.984;9.838;2023-07-13T01:22:02;3.30;;;2.53;;
75820;SDS011;64454;51.984;9.838;2023-07-13T01:24:33;3.60;;;2.70;;
75820;SDS011;64454;51.984;9.838;2023-07-13T01:27:04;3.70;;;3.00;;
75820;SDS011;64454;51.984;9.838;2023-07-13T01:29:34;3.90;;;3.00;;
75820;SDS011;64454;51.984;9.838;2023-07-13T01:32:07;5.53;;;2.92;;
75820;SDS011;64454;51.984;9.838;2023-07-13T01:34:35;4.18;;;2.70;;
75820;SDS011;64454;51.984;9.838;2023-07-13T01:37:04;4.88;;;2.67;;
75820;SDS011;64454;51.984;9.838;2023-07-13T01:39:32;3.40;;;2.47;;
75820;SDS011;64454;51.984;9.838;2023-07-13T01:41:59;3.38;;;2.65;;
75820;SDS011;64454;51.984;9.838;2023-07-13T01:44:26;3.57;;;3.00;;
75820;SDS011;64454;51.984;9.838;2023-07-13T01:46:53;4.83;;;2.80;;
75820;SDS011;64454;51.984;9.838;2023-07-13T01:49:20;3.50;;;2.67;;
75820;SDS011;64454;51.984;9.838;2023-07-13T01:51:47;3.25;;;2.85;;
75820;SDS011;64454;51.984;9.838;2023-07-13T01:54:17;3.85;;;2.72;;
75820;SDS011;64454;51.984;9.838;2023-07-13T01:56:46;3.72;;;2.75;;
75820;SDS011;64454;51.984;9.838;2023-07-13T01:59:13;5.25;;;3.17;;
75820;SDS011;64454;51.984;9.838;2023-07-13T02:01:42;3.50;;;2.90;;
75820;SDS011;64454;51.984;9.838;2023-07-13T02:04:09;3.00;;;2.70;;
75820;SDS011;64454;51.984;9.838;2023-07-13T02:06:36;4.60;;;2.75;;
75820;SDS011;64454;51.984;9.838;2023-07-13T02:09:03;3.40;;;2.53;;
75820;SDS011;64454;51.984;9.838;2023-07-13T02:11:31;3.67;;;2.40;;
75820;SDS011;64454;51.984;9.838;2023-07-13T02:13:59;4.47;;;2.50;;
75820;SDS011;64454;51.984;9.838;2023-07-13T02:16:28;4.50;;;2.70;;
75820;SDS011;64454;51.984;9.838;2023-07-13T02:18:55;4.47;;;2.60;;
75820;SDS011;64454;51.984;9.838;2023-07-13T02:21:21;8.02;;;2.90;;
75820;SDS011;64454;51.984;9.838;2023-07-13T02:23:49;4.32;;;2.63;;
75820;SDS011;64454;51.984;9.838;2023-07-13T02:26:17;3.35;;;2.60;;
75820;SDS011;64454;51.984;9.838;2023-07-13T02:28:45;4.25;;;2.40;;
75820;SDS011;64454;51.984;9.838;2023-07-13T02:31:13;5.90;;;3.00;;
75820;SDS011;64454;51.984;9.838;2023-07-13T02:33:42;3.28;;;2.60;;
75820;SDS011;64454;51.984;9.838;2023-07-13T02:36:09;4.10;;;3.10;;
75820;SDS011;64454;51.984;9.838;2023-07-13T02:38:37;3.53;;;2.83;;
75820;SDS011;64454;51.984;9.838;2023-07-13T02:41:04;4.07;;;2.92;;
75820;SDS011;64454;51.984;9.838;2023-07-13T02:43:34;4.00;;;2.80;;
75820;SDS011;64454;51.984;9.838;2023-07-13T02:46:02;4.40;;;2.30;;
75820;SDS011;64454;51.984;9.838;2023-07-13T02:48:32;4.72;;;2.50;;
75820;SDS011;64454;51.984;9.838;2023-07-13T02:50:59;3.93;;;2.50;;
75820;SDS011;64454;51.984;9.838;2023-07-13T02:53:26;3.70;;;2.67;;
75820;SDS011;64454;51.984;9.838;2023-07-13T02:55:53;3.50;;;2.40;;
75820;SDS011;64454;51.984;9.838;2023-07-13T02:58:19;3.73;;;2.77;;
75820;SDS011;64454;51.984;9.838;2023-07-13T03:00:47;3.33;;;2.50;;
75820;SDS011;64454;51.984;9.838;2023-07-13T03:03:16;3.38;;;2.35;;
75820;SDS011;64454;51.984;9.838;2023-07-13T03:05:44;3.00;;;2.50;;
75820;SDS011;64454;51.984;9.838;2023-07-13T03:08:15;3.20;;;2.70;;
75820;SDS011;64454;51.984;9.838;2023-07-13T03:10:43;3.70;;;2.90;;
75820;SDS011;64454;51.984;9.838;2023-07-13T03:13:10;3.85;;;2.60;;
75820;SDS011;64454;51.984;9.838;2023-07-13T03:15:36;3.00;;;2.40;;
75820;SDS011;64454;51.984;9.838;2023-07-13T03:18:03;2.47;;;2.20;;
75820;SDS011;64454;51.984;9.838;2023-07-13T03:20:33;3.00;;;2.65;;
75820;SDS011;64454;51.984;9.838;2023-07-13T03:23:00;3.67;;;2.60;;
75820;SDS011;64454;51.984;9.838;2023-07-13T03:25:28;3.80;;;3.00;;
75820;SDS011;64454;51.984;9.838;2023-07-13T03:27:54;4.40;;;3.00;;
75820;SDS011;64454;51.984;9.838;2023-07-13T03:30:21;3.47;;;2.60;;
75820;SDS011;64454;51.984;9.838;2023-07-13T03:32:48;4.00;;;2.50;;
75820;SDS011;64454;51.984;9.838;2023-07-13T03:35:15;3.30;;;2.50;;
75820;SDS011;64454;51.984;9.838;2023-07-13T03:37:43;3.67;;;2.47;;
75820;SDS011;64454;51.984;9.838;2023-07-13T03:40:11;2.97;;;2.60;;
75820;SDS011;64454;51.984;9.838;2023-07-13T03:42:38;3.10;;;2.50;;
75820;SDS011;64454;51.984;9.838;2023-07-13T03:45:05;3.00;;;2.30;;
75820;SDS011;64454;51.984;9.838;2023-07-13T03:47:34;3.30;;;2.40;;
75820;SDS011;64454;51.984;9.838;2023-07-13T03:50:01;4.40;;;2.40;;
75820;SDS011;64454;51.984;9.838;2023-07-13T03:52:28;4.47;;;2.87;;
75820;SDS011;64454;51.984;9.838;2023-07-13T03:54:57;4.22;;;2.90;;
75820;SDS011;64454;51.984;9.838;2023-07-13T03:57:24;5.25;;;2.80;;
75820;SDS011;64454;51.984;9.838;2023-07-13T03:59:51;3.45;;;2.95;;
75820;SDS011;64454;51.984;9.838;2023-07-13T04:02:18;4.13;;;2.70;;
75820;SDS011;64454;51.984;9.838;2023-07-13T04:04:45;3.50;;;2.42;;
75820;SDS011;64454;51.984;9.838;2023-07-13T04:07:11;3.17;;;2.38;;
75820;SDS011;64454;51.984;9.838;2023-07-13T04:09:38;4.20;;;2.85;;
75820;SDS011;64454;51.984;9.838;2023-07-13T04:12:07;4.68;;;2.97;;
75820;SDS011;64454;51.984;9.838;2023-07-13T04:14:34;3.80;;;2.80;;
75820;SDS011;64454;51.984;9.838;2023-07-13T04:17:01;5.18;;;2.90;;
75820;SDS011;64454;51.984;9.838;2023-07-13T04:19:28;3.28;;;2.58;;
75820;SDS011;64454;51.984;9.838;2023-07-13T04:21:54;4.30;;;3.30;;
75820;SDS011;64454;51.984;9.838;2023-07-13T04:24:21;3.83;;;2.72;;
75820;SDS011;64454;51.984;9.838;2023-07-13T04:26:48;4.88;;;3.05;;
75820;SDS011;64454;51.984;9.838;2023-07-13T04:29:17;4.88;;;2.50;;
75820;SDS011;64454;51.984;9.838;2023-07-13T04:31:46;4.13;;;3.10;;
75820;SDS011;64454;51.984;9.838;2023-07-13T04:34:14;5.22;;;3.30;;
75820;SDS011;64454;51.984;9.838;2023-07-13T04:36:43;3.13;;;2.55;;
75820;SDS011;64454;51.984;9.838;2023-07-13T04:39:10;4.43;;;3.00;;
75820;SDS011;64454;51.984;9.838;2023-07-13T04:41:37;3.20;;;2.60;;
75820;SDS011;64454;51.984;9.838;2023-07-13T04:44:04;3.35;;;2.67;;
75820;SDS011;64454;51.984;9.838;2023-07-13T04:46:32;3.50;;;2.90;;
75820;SDS011;64454;51.984;9.838;2023-07-13T04:48:59;4.50;;;2.40;;
75820;SDS011;64454;51.984;9.838;2023-07-13T04:51:28;3.45;;;2.80;;
75820;SDS011;64454;51.984;9.838;2023-07-13T04:53:55;3.90;;;2.70;;
75820;SDS011;64454;51.984;9.838;2023-07-13T04:56:22;6.53;;;2.67;;
75820;SDS011;64454;51.984;9.838;2023-07-13T04:58:49;3.72;;;2.25;;
75820;SDS011;64454;51.984;9.838;2023-07-13T05:01:16;3.50;;;2.30;;
75820;SDS011;64454;51.984;9.838;2023-07-13T05:03:44;5.20;;;2.70;;
75820;SDS011;64454;51.984;9.838;2023-07-13T05:06:11;5.13;;;2.55;;
75820;SDS011;64454;51.984;9.838;2023-07-13T05:08:39;3.40;;;2.50;;
75820;SDS011;64454;51.984;9.838;2023-07-13T05:11:05;3.60;;;2.50;;
75820;SDS011;64454;51.984;9.838;2023-07-13T05:13:33;4.85;;;3.00;;
75820;SDS011;64454;51.984;9.838;2023-07-13T05:16:00;3.65;;;2.50;;
75820;SDS011;64454;51.984;9.838;2023-07-13T05:18:29;4.20;;;3.40;;
75820;SDS011;64454;51.984;9.838;2023-07-13T05:20:59;5.35;;;2.70;;
75820;SDS011;64454;51.984;9.838;2023-07-13T05:23:28;5.88;;;2.67;;
75820;SDS011;64454;51.984;9.838;2023-07-13T05:25:56;4.40;;;2.80;;
75820;SDS011;64454;51.984;9.838;2023-07-13T05:28:23;6.40;;;2.77;;
75820;SDS011;64454;51.984;9.838;2023-07-13T05:30:51;5.70;;;2.80;;
75820;SDS011;64454;51.984;9.838;2023-07-13T05:33:19;4.97;;;2.70;;
75820;SDS011;64454;51.984;9.838;2023-07-13T05:35:46;8.00;;;2.60;;
75820;SDS011;64454;51.984;9.838;2023-07-13T05:38:14;8.60;;;3.85;;
75820;SDS011;64454;51.984;9.838;2023-07-13T05:40:42;8.52;;;3.20;;
75820;SDS011;64454;51.984;9.838;2023-07-13T05:43:09;5.82;;;3.35;;
75820;SDS011;64454;51.984;9.838;2023-07-13T05:45:36;4.60;;;2.50;;
75820;SDS011;64454;51.984;9.838;2023-07-13T05:48:03;3.97;;;3.07;;
75820;SDS011;64454;51.984;9.838;2023-07-13T05:50:30;10.73;;;3.30;;
75820;SDS011;64454;51.984;9.838;2023-07-13T05:52:57;4.60;;;2.60;;
75820;SDS011;64454;51.984;9.838;2023-07-13T05:55:25;4.90;;;2.72;;
75820;SDS011;64454;51.984;9.838;2023-07-13T05:57:52;7.70;;;2.92;;
75820;SDS011;64454;51.984;9.838;2023-07-13T06:00:19;10.70;;;2.90;;
75820;SDS011;64454;51.984;9.838;2023-07-13T06:02:46;6.28;;;2.63;;
75820;SDS011;64454;51.984;9.838;2023-07-13T06:05:13;4.65;;;2.70;;
75820;SDS011;64454;51.984;9.838;2023-07-13T06:07:40;3.83;;;2.47;;
75820;SDS011;64454;51.984;9.838;2023-07-13T06:10:08;5.20;;;2.70;;
75820;SDS011;64454;51.984;9.838;2023-07-13T06:12:37;3.30;;;2.30;;
75820;SDS011;64454;51.984;9.838;2023-07-13T06:15:04;4.93;;;2.40;;
75820;SDS011;64454;51.984;9.838;2023-07-13T06:17:32;5.60;;;2.22;;
75820;SDS011;64454;51.984;9.838;2023-07-13T06:19:59;4.55;;;2.20;;
75820;SDS011;64454;51.984;9.838;2023-07-13T06:22:26;4.55;;;2.00;;
75820;SDS011;64454;51.984;9.838;2023-07-13T06:24:53;4.05;;;1.90;;
75820;SDS011;64454;51.984;9.838;2023-07-13T06:27:20;5.00;;;2.30;;
75820;SDS011;64454;51.984;9.838;2023-07-13T06:29:48;3.70;;;1.70;;
75820;SDS011;64454;51.984;9.838;2023-07-13T06:32:14;3.10;;;1.50;;
75820;SDS011;64454;51.984;9.838;2023-07-13T06:34:41;2.70;;;1.50;;
75820;SDS011;64454;51.984;9.838;2023-07-13T06:37:08;3.20;;;1.73;;
75820;SDS011;64454;51.984;9.838;2023-07-13T06:39:35;5.63;;;1.80;;
75820;SDS011;64454;51.984;9.838;2023-07-13T06:42:02;3.40;;;1.55;;
75820;SDS011;64454;51.984;9.838;2023-07-13T06:44:30;3.55;;;1.70;;
75820;SDS011;64454;51.984;9.838;2023-07-13T06:46:58;2.75;;;1.38;;
75820;SDS011;64454;51.984;9.838;2023-07-13T06:49:25;4.80;;;2.10;;
75820;SDS011;64454;51.984;9.838;2023-07-13T06:51:52;5.80;;;1.70;;
75820;SDS011;64454;51.984;9.838;2023-07-13T06:54:19;3.90;;;1.70;;
75820;SDS011;64454;51.984;9.838;2023-07-13T06:56:47;6.10;;;1.60;;
75820;SDS011;64454;51.984;9.838;2023-07-13T06:59:14;2.97;;;1.40;;
75820;SDS011;64454;51.984;9.838;2023-07-13T07:01:43;3.90;;;1.70;;
75820;SDS011;64454;51.984;9.838;2023-07-13T07:04:11;4.00;;;1.30;;
75820;SDS011;64454;51.984;9.838;2023-07-13T07:06:39;3.53;;;1.20;;
75820;SDS011;64454;51.984;9.838;2023-07-13T07:09:06;2.95;;;1.40;;
75820;SDS011;64454;51.984;9.838;2023-07-13T07:11:34;3.17;;;1.48;;
75820;SDS011;64454;51.984;9.838;2023-07-13T07:14:00;5.00;;;1.80;;
75820;SDS011;64454;51.984;9.838;2023-07-13T07:16:27;1.83;;;1.40;;
75820;SDS011;64454;51.984;9.838;2023-07-13T07:18:54;3.28;;;1.33;;
75820;SDS011;64454;51.984;9.838;2023-07-13T07:21:22;3.50;;;1.70;;
75820;SDS011;64454;51.984;9.838;2023-07-13T07:23:49;4.78;;;1.58;;
75820;SDS011;64454;51.984;9.838;2023-07-13T07:26:17;2.60;;;1.67;;
75820;SDS011;64454;51.984;9.838;2023-07-13T07:28:45;4.90;;;2.10;;
75820;SDS011;64454;51.984;9.838;2023-07-13T07:31:12;3.30;;;1.38;;
75820;SDS011;64454;51.984;9.838;2023-07-13T07:33:39;3.70;;;1.80;;
75820;SDS011;64454;51.984;9.838;2023-07-13T07:36:05;3.47;;;1.58;;
75820;SDS011;64454;51.984;9.838;2023-07-13T07:38:34;4.82;;;1.83;;
75820;SDS011;64454;51.984;9.838;2023-07-13T07:41:02;6.15;;;1.60;;
75820;SDS011;64454;51.984;9.838;2023-07-13T07:43:30;5.20;;;1.60;;
75820;SDS011;64454;51.984;9.838;2023-07-13T07:45:57;2.05;;;1.10;;
75820;SDS011;64454;51.984;9.838;2023-07-13T07:48:24;3.65;;;1.50;;
75820;SDS011;64454;51.984;9.838;2023-07-13T07:50:51;3.90;;;1.50;;
75820;SDS011;64454;51.984;9.838;2023-07-13T07:53:18;2.70;;;1.60;;
75820;SDS011;64454;51.984;9.838;2023-07-13T07:55:46;2.10;;;1.20;;
75820;SDS011;64454;51.984;9.838;2023-07-13T07:58:13;4.65;;;1.50;;
75820;SDS011;64454;51.984;9.838;2023-07-13T08:00:41;4.32;;;1.40;;
75820;SDS011;64454;51.984;9.838;2023-07-13T08:03:09;2.20;;;1.30;;
75820;SDS011;64454;51.984;9.838;2023-07-13T08:05:36;2.92;;;1.30;;
75820;SDS011;64454;51.984;9.838;2023-07-13T08:08:03;6.70;;;1.30;;
75820;SDS011;64454;51.984;9.838;2023-07-13T08:10:30;2.78;;;1.10;;
75820;SDS011;64454;51.984;9.838;2023-07-13T08:12:58;2.42;;;1.25;;
75820;SDS011;64454;51.984;9.838;2023-07-13T08:15:25;5.65;;;1.77;;
75820;SDS011;64454;51.984;9.838;2023-07-13T08:17:52;3.92;;;1.30;;
75820;SDS011;64454;51.984;9.838;2023-07-13T08:20:19;2.90;;;1.33;;
75820;SDS011;64454;51.984;9.838;2023-07-13T08:34:01;3.28;;;1.40;;
75820;SDS011;64454;51.984;9.838;2023-07-13T08:36:28;4.13;;;1.23;;
75820;SDS011;64454;51.984;9.838;2023-07-13T08:38:56;5.70;;;1.50;;
75820;SDS011;64454;51.984;9.838;2023-07-13T08:41:23;3.80;;;1.60;;
75820;SDS011;64454;51.984;9.838;2023-07-13T08:43:51;4.30;;;1.67;;
75820;SDS011;64454;51.984;9.838;2023-07-13T08:46:25;4.20;;;1.55;;
75820;SDS011;64454;51.984;9.838;2023-07-13T08:49:02;2.70;;;1.60;;
75820;SDS011;64454;51.984;9.838;2023-07-13T08:51:35;6.07;;;1.83;;
75820;SDS011;64454;51.984;9.838;2023-07-13T08:54:10;4.30;;;1.60;;
75820;SDS011;64454;51.984;9.838;2023-07-13T08:56:47;3.63;;;1.73;;
75820;SDS011;64454;51.984;9.838;2023-07-13T08:59:20;3.23;;;1.73;;
75820;SDS011;64454;51.984;9.838;2023-07-13T09:04:54;6.63;;;1.90;;
75820;SDS011;64454;51.984;9.838;2023-07-13T09:07:31;4.60;;;1.80;;
75820;SDS011;64454;51.984;9.838;2023-07-13T09:10:17;6.45;;;1.80;;
75820;SDS011;64454;51.984;9.838;2023-07-13T09:12:53;4.03;;;1.90;;
75820;SDS011;64454;51.984;9.838;2023-07-13T09:15:38;3.83;;;1.98;;
75820;SDS011;64454;51.984;9.838;2023-07-13T09:18:10;5.47;;;1.90;;
75820;SDS011;64454;51.984;9.838;2023-07-13T09:20:44;5.57;;;2.20;;
75820;SDS011;64454;51.984;9.838;2023-07-13T09:23:19;6.82;;;1.80;;
75820;SDS011;64454;51.984;9.838;2023-07-13T09:25:49;5.22;;;1.90;;
75820;SDS011;64454;51.984;9.838;2023-07-13T09:28:22;3.95;;;1.90;;
75820;SDS011;64454;51.984;9.838;2023-07-13T09:30:52;3.45;;;1.85;;
75820;SDS011;64454;51.984;9.838;2023-07-13T09:33:27;6.60;;;2.28;;
75820;SDS011;64454;51.984;9.838;2023-07-13T09:35:57;3.83;;;1.80;;
75820;SDS011;64454;51.984;9.838;2023-07-13T09:38:25;3.10;;;1.67;;
75820;SDS011;64454;51.984;9.838;2023-07-13T09:41:01;3.05;;;1.50;;
75820;SDS011;64454;51.984;9.838;2023-07-13T09:46:36;5.47;;;1.70;;
75820;SDS011;64454;51.984;9.838;2023-07-13T09:49:05;3.00;;;1.50;;
75820;SDS011;64454;51.984;9.838;2023-07-13T09:51:37;4.67;;;1.80;;
75820;SDS011;64454;51.984;9.838;2023-07-13T09:54:09;3.35;;;1.80;;
75820;SDS011;64454;51.984;9.838;2023-07-13T09:56:46;5.80;;;2.00;;
75820;SDS011;64454;51.984;9.838;2023-07-13T09:59:20;2.30;;;1.60;;
75820;SDS011;64454;51.984;9.838;2023-07-13T10:01:50;3.05;;;1.70;;
75820;SDS011;64454;51.984;9.838;2023-07-13T10:04:18;6.32;;;2.17;;
75820;SDS011;64454;51.984;9.838;2023-07-13T10:06:53;3.67;;;1.75;;
75820;SDS011;64454;51.984;9.838;2023-07-13T10:09:33;4.20;;;2.00;;
75820;SDS011;64454;51.984;9.838;2023-07-13T10:12:00;4.03;;;1.88;;
75820;SDS011;64454;51.984;9.838;2023-07-13T10:14:27;3.30;;;1.77;;
75820;SDS011;64454;51.984;9.838;2023-07-13T10:16:57;4.30;;;2.03;;
75820;SDS011;64454;51.984;9.838;2023-07-13T10:19:27;2.50;;;1.80;;
75820;SDS011;64454;51.984;9.838;2023-07-13T10:22:00;3.33;;;1.80;;
75820;SDS011;64454;51.984;9.838;2023-07-13T10:24:36;2.92;;;1.70;;
75820;SDS011;64454;51.984;9.838;2023-07-13T10:27:09;4.60;;;1.70;;
75820;SDS011;64454;51.984;9.838;2023-07-13T10:29:44;3.00;;;1.75;;
75820;SDS011;64454;51.984;9.838;2023-07-13T10:32:16;4.43;;;1.50;;
75820;SDS011;64454;51.984;9.838;2023-07-13T10:34:48;4.20;;;2.00;;
75820;SDS011;64454;51.984;9.838;2023-07-13T10:37:19;3.38;;;1.80;;
75820;SDS011;64454;51.984;9.838;2023-07-13T10:39:52;3.88;;;2.03;;
75820;SDS011;64454;51.984;9.838;2023-07-13T10:42:25;6.10;;;1.90;;
75820;SDS011;64454;51.984;9.838;2023-07-13T10:44:57;2.80;;;1.50;;
75820;SDS011;64454;51.984;9.838;2023-07-13T10:47:24;2.80;;;1.50;;
75820;SDS011;64454;51.984;9.838;2023-07-13T10:49:54;4.38;;;1.70;;
75820;SDS011;64454;51.984;9.838;2023-07-13T10:52:42;3.30;;;2.05;;
75820;SDS011;64454;51.984;9.838;2023-07-13T10:55:31;5.17;;;1.67;;
75820;SDS011;64454;51.984;9.838;2023-07-13T10:58:02;2.95;;;1.77;;
75820;SDS011;64454;51.984;9.838;2023-07-13T11:00:43;4.63;;;1.83;;
75820;SDS011;64454;51.984;9.838;2023-07-13T11:03:17;3.80;;;1.80;;
75820;SDS011;64454;51.984;9.838;2023-07-13T11:05:48;4.00;;;1.90;;
75820;SDS011;64454;51.984;9.838;2023-07-13T11:08:32;2.22;;;1.50;;
75820;SDS011;64454;51.984;9.838;2023-07-13T11:11:02;3.78;;;2.05;;
75820;SDS011;64454;51.984;9.838;2023-07-13T11:13:55;3.08;;;1.80;;
75820;SDS011;64454;51.984;9.838;2023-07-13T11:16:43;3.60;;;1.90;;
75820;SDS011;64454;51.984;9.838;2023-07-13T11:22:22;4.45;;;1.50;;
75820;SDS011;64454;51.984;9.838;2023-07-13T11:25:06;3.55;;;1.60;;
75820;SDS011;64454;51.984;9.838;2023-07-13T11:28:04;3.20;;;1.60;;
75820;SDS011;64454;51.984;9.838;2023-07-13T11:30:43;3.40;;;1.52;;
75820;SDS011;64454;51.984;9.838;2023-07-13T11:33:15;4.00;;;1.85;;
75820;SDS011;64454;51.984;9.838;2023-07-13T11:35:50;3.90;;;1.70;;
75820;SDS011;64454;51.984;9.838;2023-07-13T11:38:28;4.05;;;1.85;;
75820;SDS011;64454;51.984;9.838;2023-07-13T11:41:02;2.63;;;1.80;;
75820;SDS011;64454;51.984;9.838;2023-07-13T11:43:32;3.33;;;1.63;;
75820;SDS011;64454;51.984;9.838;2023-07-13T11:46:11;3.70;;;1.90;;
75820;SDS011;64454;51.984;9.838;2023-07-13T11:48:41;5.63;;;1.90;;
75820;SDS011;64454;51.984;9.838;2023-07-13T11:51:15;3.38;;;1.80;;
75820;SDS011;64454;51.984;9.838;2023-07-13T11:53:50;4.57;;;1.90;;
75820;SDS011;64454;51.984;9.838;2023-07-13T11:56:20;2.85;;;1.60;;
75820;SDS011;64454;51.984;9.838;2023-07-13T11:58:50;4.03;;;1.80;;
75820;SDS011;64454;51.984;9.838;2023-07-13T12:01:22;4.43;;;2.00;;
75820;SDS011;64454;51.984;9.838;2023-07-13T12:03:54;3.80;;;1.60;;
75820;SDS011;64454;51.984;9.838;2023-07-13T12:06:23;3.20;;;1.60;;
75820;SDS011;64454;51.984;9.838;2023-07-13T12:08:55;2.92;;;2.08;;
75820;SDS011;64454;51.984;9.838;2023-07-13T12:11:26;3.40;;;1.70;;
75820;SDS011;64454;51.984;9.838;2023-07-13T12:13:53;4.17;;;2.00;;
75820;SDS011;64454;51.984;9.838;2023-07-13T12:16:23;4.00;;;2.00;;
75820;SDS011;64454;51.984;9.838;2023-07-13T12:18:54;2.92;;;1.95;;
75820;SDS011;64454;51.984;9.838;2023-07-13T12:21:25;3.90;;;2.07;;
75820;SDS011;64454;51.984;9.838;2023-07-13T12:23:58;5.30;;;1.80;;
75820;SDS011;64454;51.984;9.838;2023-07-13T12:26:29;3.30;;;1.90;;
75820;SDS011;64454;51.984;9.838;2023-07-13T12:28:58;2.42;;;1.90;;
75820;SDS011;64454;51.984;9.838;2023-07-13T12:31:33;4.65;;;2.08;;
75820;SDS011;64454;51.984;9.838;2023-07-13T12:34:08;5.50;;;1.60;;
75820;SDS011;64454;51.984;9.838;2023-07-13T12:36:38;4.80;;;1.70;;
75820;SDS011;64454;51.984;9.838;2023-07-13T12:39:14;3.80;;;1.70;;
75820;SDS011;64454;51.984;9.838;2023-07-13T12:41:50;3.90;;;1.70;;
75820;SDS011;64454;51.984;9.838;2023-07-13T12:44:21;4.83;;;1.60;;
75820;SDS011;64454;51.984;9.838;2023-07-13T12:46:54;2.83;;;1.88;;
75820;SDS011;64454;51.984;9.838;2023-07-13T12:49:28;2.60;;;1.70;;
75820;SDS011;64454;51.984;9.838;2023-07-13T12:52:00;2.80;;;1.60;;
75820;SDS011;64454;51.984;9.838;2023-07-13T12:54:30;2.70;;;1.55;;
75820;SDS011;64454;51.984;9.838;2023-07-13T12:56:59;3.28;;;1.60;;
75820;SDS011;64454;51.984;9.838;2023-07-13T12:59:29;3.65;;;1.40;;
75820;SDS011;64454;51.984;9.838;2023-07-13T13:02:02;6.20;;;1.90;;
75820;SDS011;64454;51.984;9.838;2023-07-13T13:04:48;4.05;;;1.90;;
75820;SDS011;64454;51.984;9.838;2023-07-13T13:07:15;2.80;;;1.60;;
75820;SDS011;64454;51.984;9.838;2023-07-13T13:09:42;3.90;;;1.50;;
75820;SDS011;64454;51.984;9.838;2023-07-13T13:12:11;2.50;;;1.60;;
75820;SDS011;64454;51.984;9.838;2023-07-13T13:14:37;3.72;;;1.70;;
75820;SDS011;64454;51.984;9.838;2023-07-13T13:17:07;3.05;;;1.67;;
75820;SDS011;64454;51.984;9.838;2023-07-13T13:19:46;3.58;;;1.80;;
75820;SDS011;64454;51.984;9.838;2023-07-13T13:22:15;3.17;;;1.30;;
75820;SDS011;64454;51.984;9.838;2023-07-13T13:24:42;5.23;;;1.50;;
75820;SDS011;64454;51.984;9.838;2023-07-13T13:27:14;4.20;;;1.70;;
75820;SDS011;64454;51.984;9.838;2023-07-13T13:29:43;2.70;;;1.50;;
75820;SDS011;64454;51.984;9.838;2023-07-13T13:32:12;2.10;;;1.50;;
75820;SDS011;64454;51.984;9.838;2023-07-13T13:34:41;4.00;;;1.50;;
75820;SDS011;64454;51.984;9.838;2023-07-13T13:37:16;2.35;;;1.50;;
75820;SDS011;64454;51.984;9.838;2023-07-13T13:39:46;4.93;;;1.50;;
75820;SDS011;64454;51.984;9.838;2023-07-13T13:42:14;4.50;;;1.60;;
75820;SDS011;64454;51.984;9.838;2023-07-13T13:44:41;3.60;;;1.48;;
75820;SDS011;64454;51.984;9.838;2023-07-13T13:47:16;2.03;;;1.60;;
75820;SDS011;64454;51.984;9.838;2023-07-13T13:49:54;6.00;;;1.77;;
75820;SDS011;64454;51.984;9.838;2023-07-13T13:52:22;3.80;;;1.80;;
75820;SDS011;64454;51.984;9.838;2023-07-13T13:54:50;4.90;;;1.50;;
75820;SDS011;64454;51.984;9.838;2023-07-13T13:57:22;3.13;;;1.48;;
75820;SDS011;64454;51.984;9.838;2023-07-13T13:59:51;2.57;;;1.50;;
75820;SDS011;64454;51.984;9.838;2023-07-13T14:02:22;2.67;;;1.50;;
75820;SDS011;64454;51.984;9.838;2023-07-13T14:04:53;2.97;;;1.60;;
75820;SDS011;64454;51.984;9.838;2023-07-13T14:07:24;3.57;;;1.50;;
75820;SDS011;64454;51.984;9.838;2023-07-13T14:09:51;3.22;;;1.70;;
75820;SDS011;64454;51.984;9.838;2023-07-13T14:12:19;3.70;;;1.30;;
75820;SDS011;64454;51.984;9.838;2023-07-13T14:14:49;1.90;;;1.35;;
75820;SDS011;64454;51.984;9.838;2023-07-13T14:17:18;2.53;;;1.50;;
75820;SDS011;64454;51.984;9.838;2023-07-13T14:19:49;4.28;;;1.60;;
75820;SDS011;64454;51.984;9.838;2023-07-13T14:22:21;3.13;;;1.48;;
75820;SDS011;64454;51.984;9.838;2023-07-13T14:24:51;4.30;;;2.00;;
75820;SDS011;64454;51.984;9.838;2023-07-13T14:27:19;5.00;;;1.60;;
75820;SDS011;64454;51.984;9.838;2023-07-13T14:29:48;2.88;;;1.50;;
75820;SDS011;64454;51.984;9.838;2023-07-13T14:32:15;3.60;;;1.70;;
75820;SDS011;64454;51.984;9.838;2023-07-13T14:34:42;2.45;;;1.77;;
75820;SDS011;64454;51.984;9.838;2023-07-13T14:37:12;3.42;;;1.60;;
75820;SDS011;64454;51.984;9.838;2023-07-13T14:39:41;10.20;;;2.05;;
75820;SDS011;64454;51.984;9.838;2023-07-13T14:42:11;2.40;;;1.50;;
75820;SDS011;64454;51.984;9.838;2023-07-13T14:44:39;7.00;;;1.90;;
75820;SDS011;64454;51.984;9.838;2023-07-13T14:47:06;4.60;;;1.70;;
75820;SDS011;64454;51.984;9.838;2023-07-13T14:49:35;3.50;;;1.90;;
75820;SDS011;64454;51.984;9.838;2023-07-13T14:52:10;3.10;;;1.80;;
75820;SDS011;64454;51.984;9.838;2023-07-13T14:54:40;5.68;;;2.35;;
75820;SDS011;64454;51.984;9.838;2023-07-13T14:57:09;3.80;;;1.90;;
75820;SDS011;64454;51.984;9.838;2023-07-13T14:59:39;4.25;;;2.03;;
75820;SDS011;64454;51.984;9.838;2023-07-13T15:02:18;5.70;;;2.05;;
75820;SDS011;64454;51.984;9.838;2023-07-13T15:04:53;7.90;;;3.53;;
75820;SDS011;64454;51.984;9.838;2023-07-13T15:07:20;7.10;;;3.60;;
75820;SDS011;64454;51.984;9.838;2023-07-13T15:09:48;4.57;;;2.80;;
75820;SDS011;64454;51.984;9.838;2023-07-13T15:12:15;4.57;;;2.55;;
75820;SDS011;64454;51.984;9.838;2023-07-13T15:14:44;5.47;;;2.70;;
75820;SDS011;64454;51.984;9.838;2023-07-13T15:17:17;5.17;;;2.70;;
75820;SDS011;64454;51.984;9.838;2023-07-13T15:19:53;3.08;;;2.03;;
75820;SDS011;64454;51.984;9.838;2023-07-13T15:22:21;3.10;;;2.28;;
75820;SDS011;64454;51.984;9.838;2023-07-13T15:24:48;4.00;;;2.57;;